Time;durP1;ratioP1;P1;durP2;ratioP2;P2;SDS_P1;SDS_P2;PMS_P1;PMS_P2;Temp;Humidity;BMP_temperature;BMP_pressure;BME280_temperature;BME280_humidity;BME280_pressure;Samples;Min_cycle;Max_cycle;Signal;HPM_P1;HPM_P2
2023/02/17 05:00:23;;;;;;;7.57;4.53;;;9.50;99.90;;;;;;5920573;23;21601;-71
2023/02/17 05:02:50;;;;;;;6.53;5.80;;;9.50;99.90;;;;;;4927470;29;20206;-69
2023/02/17 05:05:17;;;;;;;6.15;5.00;;;9.50;99.90;;;;;;4933948;29;20209;-69
2023/02/17 05:07:44;;;;;;;14.88;8.38;;;9.50;99.90;;;;;;4934298;29;20231;-68
2023/02/17 05:10:11;;;;;;;11.48;7.18;;;9.50;99.90;;;;;;4930972;29;20209;-68
2023/02/17 05:12:38;;;;;;;8.02;6.95;;;9.50;99.90;;;;;;4916250;29;20210;-69
2023/02/17 05:15:06;;;;;;;9.68;5.22;;;9.50;99.90;;;;;;4916268;29;20318;-69
2023/02/17 05:17:34;;;;;;;11.55;8.75;;;9.50;99.90;;;;;;4914053;29;20213;-69
2023/02/17 05:20:01;;;;;;;10.93;7.35;;;9.50;99.90;;;;;;4913257;29;20551;-68
2023/02/17 05:22:28;;;;;;;9.15;5.53;;;9.50;99.90;;;;;;4912068;29;20330;-68
2023/02/17 05:24:55;;;;;;;8.48;6.57;;;9.50;99.90;;;;;;4912490;29;20556;-68
2023/02/17 05:27:21;;;;;;;7.68;5.43;;;9.50;99.90;;;;;;4910256;29;20628;-69
2023/02/17 05:29:48;;;;;;;7.13;5.75;;;9.50;99.90;;;;;;4913251;29;20217;-68
2023/02/17 05:32:15;;;;;;;5.65;5.22;;;9.60;99.90;;;;;;4913723;29;20245;-68
2023/02/17 05:34:43;;;;;;;6.60;6.03;;;9.60;99.90;;;;;;4914236;29;20225;-68
2023/02/17 05:37:10;;;;;;;9.77;7.60;;;9.50;99.90;;;;;;4915104;29;20221;-68
2023/02/17 05:39:37;;;;;;;6.25;5.63;;;9.60;99.90;;;;;;4912988;29;20579;-68
2023/02/17 05:42:04;;;;;;;10.75;7.00;;;9.60;99.90;;;;;;4913545;29;20308;-69
2023/02/17 05:44:31;;;;;;;13.65;6.95;;;9.60;99.90;;;;;;4913507;29;20213;-68
2023/02/17 05:46:58;;;;;;;7.85;6.70;;;9.50;99.90;;;;;;4915379;29;20220;-69
2023/02/17 05:49:24;;;;;;;9.30;6.43;;;9.60;99.90;;;;;;4909166;29;20207;-69
2023/02/17 05:51:52;;;;;;;9.40;5.40;;;9.60;99.90;;;;;;4911946;29;20233;-69
2023/02/17 05:54:19;;;;;;;9.05;6.57;;;9.60;99.90;;;;;;4909844;29;20206;-68
2023/02/17 05:56:46;;;;;;;8.55;5.75;;;9.60;99.90;;;;;;4907572;29;20217;-69
2023/02/17 05:59:13;;;;;;;7.93;7.13;;;9.60;99.90;;;;;;4908944;29;20246;-68
2023/02/17 06:01:40;;;;;;;11.20;6.72;;;9.60;99.90;;;;;;4913851;29;20241;-70
2023/02/17 06:04:06;;;;;;;9.45;8.15;;;9.60;99.90;;;;;;4913124;29;20221;-68
2023/02/17 06:06:33;;;;;;;13.23;6.05;;;9.60;99.90;;;;;;4913883;29;20206;-68
2023/02/17 06:09:01;;;;;;;5.95;5.35;;;9.60;99.90;;;;;;4911414;29;20213;-68
2023/02/17 06:11:28;;;;;;;12.63;7.13;;;9.70;99.90;;;;;;4911993;29;20229;-68
2023/02/17 06:13:54;;;;;;;5.40;4.57;;;9.70;99.90;;;;;;4912617;29;20701;-68
2023/02/17 06:16:21;;;;;;;13.02;8.77;;;9.70;99.90;;;;;;4913511;29;20217;-68
2023/02/17 06:18:48;;;;;;;12.45;7.25;;;9.70;99.90;;;;;;4913274;29;20254;-68
2023/02/17 06:21:14;;;;;;;7.82;6.07;;;9.70;99.90;;;;;;4904963;29;20226;-67
2023/02/17 06:23:41;;;;;;;10.63;6.72;;;9.70;99.90;;;;;;4913093;29;20225;-67
2023/02/17 06:26:09;;;;;;;6.63;5.85;;;9.70;99.90;;;;;;4911907;29;20206;-68
2023/02/17 06:28:36;;;;;;;11.27;5.75;;;9.70;99.90;;;;;;4914204;29;20202;-68
2023/02/17 06:31:03;;;;;;;5.40;4.88;;;9.70;99.90;;;;;;4911958;29;20228;-68
2023/02/17 06:33:30;;;;;;;8.55;6.55;;;9.70;99.90;;;;;;4914790;29;20237;-68
2023/02/17 06:35:56;;;;;;;7.03;5.85;;;9.70;99.90;;;;;;4912001;29;20687;-68
2023/02/17 06:38:23;;;;;;;6.28;5.45;;;9.70;99.90;;;;;;4912531;29;20620;-69
2023/02/17 06:40:50;;;;;;;9.20;4.82;;;9.70;99.90;;;;;;4901696;29;20240;-69
2023/02/17 06:43:18;;;;;;;5.40;4.57;;;9.70;99.90;;;;;;4912344;29;20221;-69
2023/02/17 06:45:44;;;;;;;13.50;6.47;;;9.70;99.90;;;;;;4911696;29;20214;-69
2023/02/17 06:48:11;;;;;;;11.23;6.82;;;9.70;99.90;;;;;;4915094;29;20212;-69
2023/02/17 06:50:38;;;;;;;9.10;5.53;;;9.70;99.90;;;;;;4911833;29;20238;-69
2023/02/17 06:53:05;;;;;;;7.50;6.28;;;9.70;99.90;;;;;;4913376;29;20222;-69
2023/02/17 06:55:33;;;;;;;7.65;6.80;;;9.70;99.90;;;;;;4913676;29;20212;-69
2023/02/17 06:58:00;;;;;;;9.32;7.38;;;9.70;99.90;;;;;;4913572;29;20571;-69
2023/02/17 07:00:28;;;;;;;8.30;6.45;;;9.70;99.90;;;;;;4911620;29;20576;-69
2023/02/17 07:02:54;;;;;;;9.70;7.30;;;9.70;99.90;;;;;;4910116;29;20206;-69
2023/02/17 07:05:21;;;;;;;15.38;11.18;;;9.70;99.90;;;;;;4909364;29;20222;-69
2023/02/17 07:07:48;;;;;;;8.80;7.18;;;9.70;99.90;;;;;;4911470;29;21069;-68
2023/02/17 07:10:14;;;;;;;9.23;8.48;;;9.70;99.90;;;;;;4906117;29;20237;-69
2023/02/17 07:12:41;;;;;;;10.40;9.18;;;9.70;99.90;;;;;;4914531;29;20592;-68
2023/02/17 07:15:09;;;;;;;10.40;7.72;;;9.70;99.90;;;;;;4911938;29;20658;-69
2023/02/17 07:17:37;;;;;;;21.08;13.23;;;9.80;99.90;;;;;;4914465;29;20214;-69
2023/02/17 07:20:04;;;;;;;13.13;6.60;;;9.80;99.90;;;;;;4913611;29;20252;-69
2023/02/17 07:22:31;;;;;;;22.58;15.98;;;9.80;99.90;;;;;;4907790;29;20230;-67
2023/02/17 07:24:58;;;;;;;10.02;4.90;;;9.80;99.90;;;;;;4911053;29;20210;-69
2023/02/17 07:27:24;;;;;;;15.38;9.95;;;9.80;99.90;;;;;;4906973;29;20694;-68
2023/02/17 07:29:51;;;;;;;15.18;6.38;;;9.80;99.90;;;;;;4909635;29;20210;-67
2023/02/17 07:32:18;;;;;;;12.82;7.75;;;9.80;99.90;;;;;;4911585;29;20245;-68
2023/02/17 07:34:46;;;;;;;19.58;7.45;;;9.80;99.90;;;;;;4910407;29;20223;-68
2023/02/17 07:37:13;;;;;;;10.18;6.80;;;9.80;99.90;;;;;;4913494;29;20208;-68
2023/02/17 07:39:40;;;;;;;11.20;7.80;;;9.80;99.90;;;;;;4915732;29;20221;-70
2023/02/17 07:42:06;;;;;;;8.48;6.80;;;9.80;99.90;;;;;;4913316;29;21518;-69
2023/02/17 07:44:33;;;;;;;19.73;7.50;;;9.80;99.90;;;;;;4912926;29;20216;-68
2023/02/17 07:47:00;;;;;;;9.00;6.85;;;9.80;99.90;;;;;;4912257;29;20213;-69
2023/02/17 07:49:27;;;;;;;9.98;6.75;;;9.80;99.90;;;;;;4909336;29;20231;-69
2023/02/17 07:51:55;;;;;;;14.85;8.20;;;9.90;99.90;;;;;;4913245;29;20229;-69
2023/02/17 07:54:22;;;;;;;8.23;6.22;;;9.90;99.90;;;;;;4912221;29;20234;-67
2023/02/17 07:56:48;;;;;;;12.00;7.05;;;9.80;99.90;;;;;;4919861;29;20228;-68
2023/02/17 07:59:15;;;;;;;12.20;6.82;;;9.90;99.90;;;;;;4924859;29;20230;-67
2023/02/17 08:01:42;;;;;;;13.35;7.32;;;9.90;99.90;;;;;;4920155;29;20240;-68
2023/02/17 08:04:09;;;;;;;12.35;5.93;;;9.90;99.90;;;;;;4915202;29;20214;-67
2023/02/17 08:06:38;;;;;;;13.10;5.47;;;9.90;99.90;;;;;;4918629;29;20202;-69
2023/02/17 08:14:37;;;;;;;9.57;5.25;;;9.90;99.90;;;;;;4914528;29;20216;-68
2023/02/17 08:17:04;;;;;;;10.75;5.40;;;10.00;99.90;;;;;;4917370;29;20592;-69
2023/02/17 08:19:31;;;;;;;13.07;8.23;;;10.00;99.90;;;;;;4916486;29;20237;-69
2023/02/17 08:21:58;;;;;;;7.75;5.88;;;10.00;99.90;;;;;;4910882;29;20238;-69
2023/02/17 08:24:26;;;;;;;11.00;5.55;;;10.00;99.90;;;;;;4916522;29;20213;-69
2023/02/17 08:26:53;;;;;;;14.25;9.38;;;10.00;99.90;;;;;;4914546;29;20205;-68
2023/02/17 08:29:20;;;;;;;8.10;5.25;;;10.00;99.90;;;;;;4915022;29;20208;-68
2023/02/17 08:31:51;;;;;;;4.85;4.45;;;10.00;99.90;;;;;;4917214;29;20884;-69
2023/02/17 08:34:18;;;;;;;9.05;5.45;;;10.00;99.90;;;;;;4909291;29;20214;-68
2023/02/17 08:36:44;;;;;;;7.72;4.13;;;10.00;99.90;;;;;;4914643;29;20236;-68
2023/02/17 08:39:13;;;;;;;5.75;5.07;;;10.00;99.90;;;;;;4917031;29;20234;-68
2023/02/17 08:41:42;;;;;;;8.68;5.68;;;10.00;99.90;;;;;;4916920;29;20268;-68
2023/02/17 08:44:11;;;;;;;7.97;6.35;;;10.10;99.90;;;;;;4917760;29;20215;-68
2023/02/17 08:46:39;;;;;;;6.40;5.07;;;10.10;99.90;;;;;;4915194;29;20203;-67
2023/02/17 08:49:06;;;;;;;4.85;3.50;;;10.10;99.90;;;;;;4915817;29;20228;-68
2023/02/17 08:51:34;;;;;;;10.38;6.05;;;10.10;99.90;;;;;;4916751;29;20228;-68
2023/02/17 08:54:01;;;;;;;8.73;4.70;;;10.10;99.90;;;;;;4916153;29;20664;-69
2023/02/17 08:56:29;;;;;;;9.48;6.22;;;10.10;99.90;;;;;;4909497;29;20250;-69
2023/02/17 08:58:57;;;;;;;11.18;5.47;;;10.10;99.90;;;;;;4917467;29;20237;-67
2023/02/17 09:01:24;;;;;;;5.35;4.65;;;10.10;99.90;;;;;;4914307;29;20258;-68
2023/02/17 09:03:53;;;;;;;9.27;5.57;;;10.10;99.90;;;;;;4915221;29;20207;-68
2023/02/17 09:06:20;;;;;;;8.35;4.47;;;10.10;99.90;;;;;;4913157;29;20210;-67
2023/02/17 09:08:47;;;;;;;7.30;5.78;;;10.10;99.90;;;;;;4917371;29;20277;-67
2023/02/17 09:11:18;;;;;;;6.97;5.45;;;10.10;99.90;;;;;;4899593;29;20228;-68
2023/02/17 09:13:45;;;;;;;15.88;7.47;;;10.10;99.90;;;;;;4917634;29;20745;-69
2023/02/17 09:16:13;;;;;;;6.63;6.07;;;10.10;99.90;;;;;;4916112;29;20219;-68
2023/02/17 09:18:40;;;;;;;6.28;4.38;;;10.10;99.90;;;;;;4919446;29;20208;-68
2023/02/17 09:21:07;;;;;;;6.30;3.95;;;10.20;99.90;;;;;;4912112;29;20252;-68
2023/02/17 09:23:34;;;;;;;7.05;6.35;;;10.20;99.90;;;;;;4917072;29;20212;-68
2023/02/17 09:26:03;;;;;;;5.95;5.45;;;10.20;99.90;;;;;;4915046;29;20211;-68
2023/02/17 09:28:30;;;;;;;5.40;5.00;;;10.30;99.90;;;;;;4917398;29;20277;-68
2023/02/17 09:30:57;;;;;;;4.45;3.92;;;10.30;99.90;;;;;;4914928;29;20691;-68
2023/02/17 09:33:25;;;;;;;6.38;5.18;;;10.30;99.90;;;;;;4916504;29;20213;-68
2023/02/17 09:35:52;;;;;;;5.75;4.38;;;10.30;99.90;;;;;;4916949;29;20270;-69
2023/02/17 09:38:19;;;;;;;7.70;6.90;;;10.40;99.90;;;;;;4918945;29;20211;-68
2023/02/17 09:40:48;;;;;;;8.55;3.92;;;10.40;99.90;;;;;;4916480;29;20239;-68
2023/02/17 09:43:17;;;;;;;4.85;3.92;;;10.40;99.90;;;;;;4911523;29;20555;-68
2023/02/17 09:45:49;;;;;;;7.65;4.93;;;10.40;99.90;;;;;;4913619;29;20220;-68
2023/02/17 09:48:19;;;;;;;11.95;5.40;;;10.40;99.90;;;;;;4908806;29;20206;-67
2023/02/17 09:50:55;;;;;;;7.78;5.32;;;10.50;99.90;;;;;;4915601;29;20232;-67
2023/02/17 09:53:28;;;;;;;12.27;4.00;;;10.50;99.90;;;;;;4908528;29;20222;-67
2023/02/17 09:55:57;;;;;;;4.97;4.15;;;10.50;99.90;;;;;;4915143;29;20583;-66
2023/02/17 09:58:28;;;;;;;6.72;3.38;;;10.50;99.90;;;;;;4915685;29;20364;-67
2023/02/17 10:00:57;;;;;;;13.23;5.18;;;10.50;99.90;;;;;;4914156;29;20607;-67
2023/02/17 10:03:31;;;;;;;5.22;4.50;;;10.60;99.90;;;;;;4915250;29;20241;-67
2023/02/17 10:06:08;;;;;;;8.73;2.80;;;10.60;99.90;;;;;;4915604;29;20207;-67
2023/02/17 10:08:42;;;;;;;7.47;4.32;;;10.60;99.90;;;;;;4914034;29;20671;-67
2023/02/17 10:11:16;;;;;;;4.32;3.35;;;10.70;99.90;;;;;;4912958;29;20302;-67
2023/02/17 10:13:45;;;;;;;9.82;4.15;;;10.70;99.90;;;;;;4915175;29;20210;-67
2023/02/17 10:16:20;;;;;;;5.53;5.00;;;10.70;99.90;;;;;;4913423;29;20206;-66
2023/02/17 10:18:53;;;;;;;5.47;3.55;;;10.70;99.90;;;;;;4914939;29;20258;-68
2023/02/17 10:21:27;;;;;;;6.95;2.80;;;10.70;99.90;;;;;;4898137;29;20239;-66
2023/02/17 10:23:54;;;;;;;6.65;4.55;;;10.80;99.90;;;;;;4915124;29;20649;-67
2023/02/17 10:26:38;;;;;;;6.10;3.65;;;10.80;99.90;;;;;;4914904;29;20227;-68
2023/02/17 10:29:06;;;;;;;5.07;4.40;;;10.80;99.90;;;;;;4914917;29;20215;-67
2023/02/17 10:31:44;;;;;;;4.32;4.10;;;10.80;99.90;;;;;;4914510;29;20770;-67
2023/02/17 10:34:26;;;;;;;6.80;5.88;;;10.80;99.90;;;;;;4915249;29;20270;-67
2023/02/17 10:36:59;;;;;;;4.35;3.08;;;10.80;99.90;;;;;;4914391;29;20246;-67
2023/02/17 10:39:41;;;;;;;5.75;4.95;;;10.80;99.90;;;;;;4915355;29;20215;-67
2023/02/17 10:42:14;;;;;;;4.55;4.05;;;10.80;99.90;;;;;;4914578;29;20387;-68
2023/02/17 10:44:41;;;;;;;7.18;4.53;;;10.80;99.90;;;;;;4913855;29;20232;-67
2023/02/17 10:47:09;;;;;;;3.72;3.40;;;10.80;99.90;;;;;;4909713;29;20311;-69
2023/02/17 10:49:39;;;;;;;8.55;3.78;;;10.80;99.90;;;;;;4915173;29;20208;-68
2023/02/17 10:52:14;;;;;;;2.53;2.30;;;10.80;99.90;;;;;;4913751;29;20243;-68
2023/02/17 10:54:46;;;;;;;4.75;4.25;;;10.80;99.90;;;;;;4914696;29;20655;-69
2023/02/17 10:57:17;;;;;;;9.40;5.97;;;10.90;99.90;;;;;;4914676;29;20565;-69
2023/02/17 10:59:45;;;;;;;3.30;2.92;;;10.90;99.90;;;;;;4913796;29;20254;-69
2023/02/17 11:02:18;;;;;;;8.32;3.80;;;10.90;99.90;;;;;;4914865;29;20257;-68
2023/02/17 11:04:47;;;;;;;5.55;3.45;;;11.00;99.90;;;;;;4913891;29;20684;-69
2023/02/17 11:07:17;;;;;;;7.97;4.25;;;11.00;99.90;;;;;;4914958;29;20536;-69
2023/02/17 11:09:49;;;;;;;12.10;3.95;;;11.00;99.90;;;;;;4914899;29;20565;-69
2023/02/17 11:12:20;;;;;;;4.20;3.90;;;11.00;99.90;;;;;;4914276;29;20578;-69
2023/02/17 11:14:50;;;;;;;6.60;3.25;;;11.00;99.90;;;;;;4910725;29;20227;-69
2023/02/17 11:17:22;;;;;;;12.30;5.13;;;11.00;99.90;;;;;;4937147;23;20209;-66
2023/02/17 11:19:58;;;;;;;6.70;3.95;;;11.00;99.90;;;;;;4911515;29;20240;-67
2023/02/17 11:22:35;;;;;;;3.63;3.20;;;11.00;99.90;;;;;;4914311;29;20223;-66
2023/02/17 11:25:06;;;;;;;7.03;4.05;;;11.10;99.90;;;;;;4913721;29;20284;-67
2023/02/17 11:27:33;;;;;;;7.72;4.90;;;11.10;99.90;;;;;;4913789;29;20279;-67
2023/02/17 11:30:09;;;;;;;6.07;5.45;;;11.10;99.90;;;;;;4911496;29;20228;-67
2023/02/17 11:32:36;;;;;;;6.40;5.85;;;11.10;99.90;;;;;;4914224;29;20576;-67
2023/02/17 11:35:05;;;;;;;6.85;5.30;;;11.20;99.90;;;;;;4914096;29;20216;-68
2023/02/17 11:37:41;;;;;;;9.13;5.07;;;11.10;99.90;;;;;;4914090;29;20329;-68
2023/02/17 11:40:24;;;;;;;6.57;4.72;;;11.10;99.90;;;;;;4913942;29;20232;-68
2023/02/17 11:42:56;;;;;;;6.65;4.72;;;11.10;99.90;;;;;;4909768;29;20381;-67
2023/02/17 11:45:26;;;;;;;10.10;4.60;;;11.10;99.90;;;;;;4912500;29;20208;-68
2023/02/17 11:48:15;;;;;;;6.68;5.45;;;11.10;99.90;;;;;;4914022;29;20255;-68
2023/02/17 11:50:50;;;;;;;8.30;7.47;;;11.10;99.90;;;;;;4916699;29;20217;-68
2023/02/17 11:53:26;;;;;;;9.55;5.63;;;11.10;99.90;;;;;;4917360;29;20656;-68
2023/02/17 11:56:09;;;;;;;5.53;4.35;;;11.10;99.90;;;;;;4918041;29;20219;-68
2023/02/17 11:58:47;;;;;;;6.38;4.55;;;11.10;99.90;;;;;;4915033;29;20645;-68
2023/02/17 12:01:29;;;;;;;6.30;5.30;;;11.10;99.90;;;;;;4909251;29;20235;-68
2023/02/17 12:04:14;;;;;;;14.85;5.80;;;11.10;99.90;;;;;;4917318;29;20570;-68
2023/02/17 12:06:51;;;;;;;11.88;4.72;;;11.10;99.90;;;;;;4917480;29;20232;-69
2023/02/17 12:09:27;;;;;;;4.18;3.58;;;11.10;99.90;;;;;;4917145;29;20227;-67
2023/02/17 12:12:00;;;;;;;8.07;5.10;;;11.00;99.90;;;;;;4915984;29;20211;-67
2023/02/17 12:14:45;;;;;;;10.68;5.68;;;11.00;99.90;;;;;;4915595;29;20214;-67
2023/02/17 12:17:18;;;;;;;6.10;5.38;;;11.00;99.90;;;;;;4916884;29;20233;-67
2023/02/17 12:19:55;;;;;;;4.03;3.38;;;11.00;99.90;;;;;;4916769;29;20218;-67
2023/02/17 12:22:27;;;;;;;10.18;4.95;;;11.00;99.90;;;;;;4917327;29;20215;-68
2023/02/17 12:25:14;;;;;;;8.57;6.22;;;11.00;99.90;;;;;;4916330;29;20209;-68
2023/02/17 12:27:53;;;;;;;3.22;2.97;;;11.00;99.90;;;;;;4915852;29;20235;-68
2023/02/17 12:30:28;;;;;;;4.68;4.22;;;11.00;99.90;;;;;;4909658;29;20583;-67
2023/02/17 12:33:10;;;;;;;8.10;4.07;;;11.00;99.90;;;;;;4915436;29;20210;-68
2023/02/17 12:35:45;;;;;;;4.88;4.03;;;11.00;99.90;;;;;;4917328;29;20374;-68
2023/02/17 12:38:15;;;;;;;4.05;3.42;;;11.00;99.90;;;;;;4916883;29;20239;-67
2023/02/17 12:40:50;;;;;;;4.20;3.90;;;11.10;99.90;;;;;;4916744;29;20228;-68
2023/02/17 12:43:25;;;;;;;5.15;4.25;;;11.10;99.90;;;;;;4916355;29;20222;-68
2023/02/17 12:45:53;;;;;;;5.40;3.15;;;11.00;99.90;;;;;;4915590;29;20672;-68
2023/02/17 12:48:28;;;;;;;4.25;3.50;;;11.10;99.90;;;;;;4915967;29;20258;-68
2023/02/17 12:51:00;;;;;;;3.13;2.75;;;11.00;99.90;;;;;;4916517;29;20409;-67
2023/02/17 12:53:38;;;;;;;3.75;3.45;;;11.10;99.90;;;;;;4916529;29;20556;-68
2023/02/17 12:56:36;;;;;;;3.42;3.17;;;11.00;99.90;;;;;;4916219;29;20593;-69
2023/02/17 12:59:14;;;;;;;5.13;4.22;;;11.10;99.90;;;;;;4915633;29;20225;-69
2023/02/17 13:01:59;;;;;;;3.90;2.08;;;11.10;99.90;;;;;;4912841;29;20339;-69
2023/02/17 13:04:27;;;;;;;3.78;3.47;;;11.10;99.90;;;;;;4911965;29;20212;-68
2023/02/17 13:07:01;;;;;;;1.35;1.35;;;11.20;99.90;;;;;;4913759;29;20215;-68
2023/02/17 13:09:32;;;;;;;3.97;2.63;;;11.20;99.90;;;;;;4913296;29;20344;-67
2023/02/17 13:12:33;;;;;;;2.28;2.10;;;11.10;99.90;;;;;;4915262;29;20200;-68
2023/02/17 13:15:01;;;;;;;2.28;1.65;;;11.10;99.90;;;;;;4914377;29;20247;-68
2023/02/17 13:17:29;;;;;;;5.18;3.20;;;11.10;99.90;;;;;;4915893;29;20208;-68
2023/02/17 13:20:22;;;;;;;4.15;1.95;;;11.10;99.90;;;;;;4912247;29;20211;-67
2023/02/17 13:22:49;;;;;;;2.90;2.70;;;11.10;99.90;;;;;;4914378;29;20679;-67
2023/02/17 13:25:28;;;;;;;4.22;2.63;;;11.20;99.90;;;;;;4914581;29;20479;-67
2023/02/17 13:27:57;;;;;;;1.75;1.65;;;11.10;99.90;;;;;;4912163;29;20237;-67
2023/02/17 13:30:30;;;;;;;2.17;1.92;;;11.10;99.90;;;;;;4915426;29;20201;-67
2023/02/17 13:33:02;;;;;;;2.65;2.50;;;11.20;99.90;;;;;;4916283;29;20223;-67
2023/02/17 13:35:33;;;;;;;0.80;0.70;;;11.10;99.90;;;;;;4913931;29;20688;-67
2023/02/17 13:38:01;;;;;;;2.22;2.10;;;11.10;99.90;;;;;;4914742;29;20234;-67
2023/02/17 13:40:35;;;;;;;2.70;1.95;;;11.10;99.90;;;;;;4912794;29;20228;-68
2023/02/17 13:43:15;;;;;;;7.50;1.95;;;11.10;99.90;;;;;;4916617;29;20214;-68
2023/02/17 13:45:45;;;;;;;1.63;1.60;;;11.10;99.90;;;;;;4913675;29;20230;-68
2023/02/17 13:48:15;;;;;;;1.05;1.05;;;11.10;99.90;;;;;;4913870;29;20228;-68
2023/02/17 13:50:47;;;;;;;0.90;0.90;;;11.10;99.90;;;;;;4913200;29;20566;-69
2023/02/17 13:53:23;;;;;;;1.88;1.23;;;11.10;99.90;;;;;;4915288;29;20288;-68
2023/02/17 13:55:50;;;;;;;2.35;1.63;;;11.10;99.90;;;;;;4911642;29;20209;-69
2023/02/17 13:58:23;;;;;;;2.15;1.00;;;11.10;99.90;;;;;;4915023;29;20235;-68
2023/02/17 14:00:50;;;;;;;2.10;1.60;;;11.10;99.90;;;;;;4912870;29;20238;-69
2023/02/17 14:03:21;;;;;;;1.75;0.95;;;11.10;99.90;;;;;;4913284;29;20219;-69
2023/02/17 14:05:49;;;;;;;2.08;1.92;;;11.10;99.90;;;;;;4913239;29;20231;-68
2023/02/17 14:08:19;;;;;;;1.02;1.02;;;11.20;99.90;;;;;;4914082;29;20228;-68
2023/02/17 14:10:46;;;;;;;1.20;1.20;;;11.20;99.90;;;;;;4911351;29;20298;-69
2023/02/17 14:13:14;;;;;;;1.15;1.15;;;11.20;99.90;;;;;;4913172;29;20256;-69
2023/02/17 14:15:52;;;;;;;1.15;0.93;;;11.20;99.90;;;;;;4914061;29;20212;-69
2023/02/17 14:18:29;;;;;;;6.88;1.85;;;11.20;99.90;;;;;;4909334;29;20250;-67
2023/02/17 14:21:01;;;;;;;1.70;1.50;;;11.20;99.90;;;;;;4914424;29;20268;-69
2023/02/17 14:23:28;;;;;;;1.90;1.90;;;11.20;99.90;;;;;;4915785;29;20241;-69
2023/02/17 14:25:55;;;;;;;3.17;2.85;;;11.20;99.90;;;;;;4918273;29;20217;-70
2023/02/17 14:28:24;;;;;;;1.58;1.48;;;11.10;99.90;;;;;;4918608;29;20230;-69
2023/02/17 14:30:53;;;;;;;4.35;1.92;;;11.20;99.90;;;;;;4911729;29;20235;-69
2023/02/17 14:33:24;;;;;;;2.38;2.25;;;11.20;99.90;;;;;;4905986;29;20621;-68
2023/02/17 14:35:52;;;;;;;1.70;1.60;;;11.20;99.90;;;;;;4910209;29;20203;-69
2023/02/17 14:38:22;;;;;;;3.55;3.33;;;11.20;99.90;;;;;;4910976;29;20249;-69
2023/02/17 14:40:51;;;;;;;1.83;1.73;;;11.20;99.90;;;;;;4911801;29;20228;-68
2023/02/17 14:43:18;;;;;;;2.25;1.55;;;11.20;99.90;;;;;;4904631;29;20216;-67
2023/02/17 14:45:45;;;;;;;2.83;1.95;;;11.20;99.90;;;;;;4910499;29;20212;-68
2023/02/17 14:48:13;;;;;;;2.05;2.05;;;11.20;99.90;;;;;;4909377;29;20706;-68
2023/02/17 14:50:42;;;;;;;1.02;1.02;;;11.20;99.90;;;;;;4912257;29;20234;-68
2023/02/17 14:53:12;;;;;;;3.13;2.95;;;11.20;99.90;;;;;;4910069;29;20237;-68
2023/02/17 14:55:46;;;;;;;3.08;2.35;;;11.20;99.90;;;;;;4911713;29;20237;-67
2023/02/17 14:58:17;;;;;;;3.55;2.10;;;11.20;99.90;;;;;;4911198;29;20240;-68
2023/02/17 15:00:44;;;;;;;2.72;2.60;;;11.20;99.90;;;;;;4909381;29;20215;-69
2023/02/17 15:03:12;;;;;;;3.67;2.40;;;11.20;99.90;;;;;;4910921;29;20214;-67
2023/02/17 15:05:39;;;;;;;4.97;2.85;;;11.20;99.90;;;;;;4912101;29;20204;-67
2023/02/17 15:08:06;;;;;;;3.50;2.35;;;11.20;99.90;;;;;;4911526;29;20247;-69
2023/02/17 15:10:34;;;;;;;3.78;3.45;;;11.20;99.90;;;;;;4911977;29;20710;-68
2023/02/17 15:13:01;;;;;;;1.17;1.10;;;11.20;99.90;;;;;;4911455;29;20306;-68
2023/02/17 15:15:28;;;;;;;2.80;2.35;;;11.30;99.90;;;;;;4912274;29;20215;-69
2023/02/17 15:17:54;;;;;;;5.57;2.20;;;11.20;99.90;;;;;;4877328;29;1037926;-67
2023/02/17 15:20:23;;;;;;;4.22;2.83;;;11.20;99.90;;;;;;4913412;29;20217;-69
2023/02/17 15:22:51;;;;;;;6.35;2.75;;;11.20;99.90;;;;;;4912553;29;20620;-70
2023/02/17 15:25:21;;;;;;;9.50;2.70;;;11.30;99.90;;;;;;4915368;29;20210;-68
2023/02/17 15:27:48;;;;;;;3.55;2.80;;;11.30;99.90;;;;;;4917171;29;20244;-68
2023/02/17 15:30:17;;;;;;;1.50;1.40;;;11.30;99.90;;;;;;4917430;29;20221;-67
2023/02/17 15:32:44;;;;;;;7.03;2.47;;;11.30;99.90;;;;;;4915584;29;20215;-68
2023/02/17 15:35:17;;;;;;;14.85;2.92;;;11.30;99.90;;;;;;4916252;29;20210;-69
2023/02/17 15:37:45;;;;;;;2.80;1.30;;;11.30;99.90;;;;;;4915492;29;20252;-68
2023/02/17 15:40:17;;;;;;;3.42;1.10;;;11.30;99.90;;;;;;4917573;29;20200;-68
2023/02/17 15:42:44;;;;;;;1.50;1.40;;;11.20;99.90;;;;;;4915273;29;20238;-68
2023/02/17 15:45:15;;;;;;;12.65;2.60;;;11.20;99.90;;;;;;4915190;29;20207;-68
2023/02/17 15:47:42;;;;;;;1.90;1.70;;;11.20;99.90;;;;;;4916840;29;20671;-69
2023/02/17 15:50:18;;;;;;;1.88;1.70;;;11.20;99.90;;;;;;4916347;29;20222;-68
2023/02/17 15:52:46;;;;;;;2.05;1.02;;;11.10;99.90;;;;;;4915536;29;20207;-68
2023/02/17 15:55:13;;;;;;;1.05;0.63;;;11.00;99.90;;;;;;4916767;29;20620;-68
2023/02/17 15:57:45;;;;;;;5.13;1.25;;;10.90;99.90;;;;;;4916754;29;20569;-69
2023/02/17 16:00:18;;;;;;;2.78;0.77;;;10.80;99.90;;;;;;4916090;29;20210;-68
2023/02/17 16:02:45;;;;;;;1.77;1.67;;;10.70;99.90;;;;;;4918796;29;20229;-69
2023/02/17 16:05:14;;;;;;;0.50;0.50;;;10.60;99.90;;;;;;4914990;29;20203;-70
2023/02/17 16:07:41;;;;;;;0.95;0.60;;;10.50;99.90;;;;;;4918453;29;20230;-68
2023/02/17 16:10:12;;;;;;;0.55;0.55;;;10.40;99.90;;;;;;4915021;29;20218;-68
2023/02/17 16:12:39;;;;;;;0.75;0.32;;;10.30;99.90;;;;;;4917271;29;20235;-69
2023/02/17 16:15:10;;;;;;;1.38;0.20;;;10.30;99.90;;;;;;4916797;29;20217;-68
2023/02/17 16:17:38;;;;;;;0.68;0.65;;;10.20;99.90;;;;;;4914264;29;20251;-68
2023/02/17 16:20:12;;;;;;;1.08;1.08;;;10.10;99.90;;;;;;4915450;29;20217;-68
2023/02/17 16:22:39;;;;;;;0.95;0.40;;;10.10;99.90;;;;;;4910193;29;20686;-68
2023/02/17 16:25:06;;;;;;;6.72;2.30;;;10.10;99.90;;;;;;4915026;29;20216;-66
2023/02/17 16:27:34;;;;;;;6.35;1.33;;;10.00;99.90;;;;;;4915216;29;20225;-67
2023/02/17 16:30:01;;;;;;;6.82;1.38;;;9.90;99.90;;;;;;4911039;29;20220;-68
2023/02/17 16:32:28;;;;;;;2.22;1.10;;;9.90;99.90;;;;;;4916098;29;20276;-68
2023/02/17 16:34:55;;;;;;;1.35;1.25;;;9.90;99.90;;;;;;4913745;29;20216;-67
2023/02/17 16:37:21;;;;;;;11.82;4.22;;;9.80;99.90;;;;;;4913581;29;20282;-67
2023/02/17 16:39:49;;;;;;;8.40;0.70;;;9.70;99.90;;;;;;4913306;29;20219;-67
2023/02/17 16:42:16;;;;;;;3.88;1.08;;;9.80;99.90;;;;;;4913309;29;20323;-67
2023/02/17 16:44:44;;;;;;;0.47;0.40;;;9.70;99.90;;;;;;4915014;29;20320;-68
2023/02/17 16:47:19;;;;;;;2.55;1.35;;;9.70;99.90;;;;;;4916244;29;20222;-67
2023/02/17 16:49:47;;;;;;;2.58;0.75;;;9.60;99.90;;;;;;4915945;29;20273;-66
2023/02/17 16:52:22;;;;;;;3.55;1.98;;;9.60;99.90;;;;;;4915790;29;20282;-66
2023/02/17 16:54:49;;;;;;;1.02;0.65;;;9.60;99.90;;;;;;4916019;29;20243;-68
2023/02/17 16:57:17;;;;;;;0.70;0.70;;;9.60;99.90;;;;;;4913685;29;20205;-67
2023/02/17 16:59:46;;;;;;;1.95;0.85;;;9.60;99.90;;;;;;4916083;29;20245;-68
2023/02/17 17:02:13;;;;;;;0.30;0.30;;;9.50;99.90;;;;;;4920559;29;20219;-68
2023/02/17 17:04:40;;;;;;;1.27;1.17;;;9.60;99.90;;;;;;4915881;29;20224;-69
2023/02/17 17:07:07;;;;;;;0.50;0.43;;;9.50;99.90;;;;;;4916111;29;20223;-68
2023/02/17 17:09:34;;;;;;;0.60;0.60;;;9.50;99.90;;;;;;4915519;29;20264;-70
2023/02/17 17:12:01;;;;;;;2.30;0.88;;;9.40;99.90;;;;;;4910945;29;20301;-68
2023/02/17 17:14:27;;;;;;;1.02;1.02;;;9.40;99.90;;;;;;4912700;29;20217;-69
2023/02/17 17:17:00;;;;;;;0.93;0.73;;;9.30;99.90;;;;;;4912534;29;20233;-68
2023/02/17 17:19:27;;;;;;;0.98;0.98;;;9.30;99.90;;;;;;4936927;23;20604;-68
2023/02/17 17:21:53;;;;;;;2.75;1.85;;;9.20;99.90;;;;;;4925246;29;20231;-70
2023/02/17 17:24:20;;;;;;;1.13;1.05;;;9.20;99.90;;;;;;4914661;29;20216;-68
2023/02/17 17:26:49;;;;;;;0.30;0.30;;;9.20;99.90;;;;;;4916908;29;20500;-68
2023/02/17 17:29:17;;;;;;;9.82;2.20;;;9.10;99.90;;;;;;4906137;29;20234;-69
2023/02/17 17:31:44;;;;;;;11.80;1.80;;;9.10;99.90;;;;;;4914146;29;20213;-68
2023/02/17 17:34:12;;;;;;;7.50;1.67;;;9.00;99.90;;;;;;4922245;29;20269;-69
2023/02/17 17:36:41;;;;;;;1.85;0.65;;;9.00;99.90;;;;;;4923428;29;20216;-69
2023/02/17 17:39:20;;;;;;;1.42;1.05;;;9.00;99.90;;;;;;4925210;29;20268;-69
2023/02/17 17:41:47;;;;;;;1.27;1.27;;;8.90;99.90;;;;;;4919892;29;20243;-70
2023/02/17 17:44:14;;;;;;;0.85;0.85;;;8.90;99.90;;;;;;4918059;29;20215;-69
2023/02/17 17:46:42;;;;;;;1.67;0.90;;;8.90;99.90;;;;;;4922694;29;20229;-70
2023/02/17 17:49:11;;;;;;;2.50;0.93;;;8.80;99.90;;;;;;4926857;29;20236;-69
2023/02/17 17:51:39;;;;;;;2.25;0.68;;;8.80;99.90;;;;;;4928383;29;20217;-69
2023/02/17 17:54:07;;;;;;;0.22;0.22;;;8.80;99.90;;;;;;4930153;29;20215;-70
2023/02/17 17:56:36;;;;;;;14.70;3.75;;;8.80;99.90;;;;;;4925690;29;20674;-68
2023/02/17 17:59:05;;;;;;;0.85;0.85;;;8.70;99.90;;;;;;4921230;29;20345;-70
2023/02/17 18:01:31;;;;;;;8.68;0.90;;;8.70;99.90;;;;;;4914640;29;20268;-69
2023/02/17 18:03:59;;;;;;;8.10;1.85;;;8.70;99.90;;;;;;4913332;29;20209;-69
2023/02/17 18:06:29;;;;;;;1.17;0.60;;;8.70;99.90;;;;;;4914386;29;20204;-69